sensor_id;sensor_type;location;lat;lon;timestamp;P1;durP1;ratioP1;P2;durP2;ratioP2
48327;SDS011;34136;51.022;7.082;2023-05-10T00:01:08;11.65;;;10.65;;
48327;SDS011;34136;51.022;7.082;2023-05-10T00:04:00;11.63;;;10.43;;
48327;SDS011;34136;51.022;7.082;2023-05-10T00:06:54;11.80;;;10.77;;
48327;SDS011;34136;51.022;7.082;2023-05-10T00:09:44;12.50;;;11.38;;
48327;SDS011;34136;51.022;7.082;2023-05-10T00:12:33;14.13;;;10.88;;
48327;SDS011;34136;51.022;7.082;2023-05-10T00:15:19;13.52;;;12.02;;
48327;SDS011;34136;51.022;7.082;2023-05-10T00:18:07;13.00;;;11.90;;
48327;SDS011;34136;51.022;7.082;2023-05-10T00:20:54;13.77;;;12.57;;
48327;SDS011;34136;51.022;7.082;2023-05-10T00:23:58;13.73;;;12.52;;
48327;SDS011;34136;51.022;7.082;2023-05-10T00:26:45;13.50;;;12.25;;
48327;SDS011;34136;51.022;7.082;2023-05-10T00:29:31;12.52;;;11.32;;
48327;SDS011;34136;51.022;7.082;2023-05-10T00:32:18;15.18;;;13.75;;
48327;SDS011;34136;51.022;7.082;2023-05-10T00:35:05;14.40;;;13.02;;
48327;SDS011;34136;51.022;7.082;2023-05-10T00:37:51;15.30;;;13.88;;
48327;SDS011;34136;51.022;7.082;2023-05-10T00:40:39;15.77;;;14.07;;
48327;SDS011;34136;51.022;7.082;2023-05-10T00:43:34;14.18;;;12.88;;
48327;SDS011;34136;51.022;7.082;2023-05-10T00:46:23;14.40;;;13.00;;
48327;SDS011;34136;51.022;7.082;2023-05-10T00:49:12;13.43;;;12.15;;
48327;SDS011;34136;51.022;7.082;2023-05-10T00:51:59;13.82;;;12.63;;
48327;SDS011;34136;51.022;7.082;2023-05-10T00:54:47;12.60;;;11.30;;
48327;SDS011;34136;51.022;7.082;2023-05-10T00:57:35;14.30;;;12.80;;
48327;SDS011;34136;51.022;7.082;2023-05-10T01:00:22;14.43;;;12.85;;
48327;SDS011;34136;51.022;7.082;2023-05-10T01:03:10;14.93;;;13.38;;
48327;SDS011;34136;51.022;7.082;2023-05-10T01:06:00;15.10;;;13.60;;
48327;SDS011;34136;51.022;7.082;2023-05-10T01:08:52;15.45;;;13.88;;
48327;SDS011;34136;51.022;7.082;2023-05-10T01:11:39;16.17;;;14.57;;
48327;SDS011;34136;51.022;7.082;2023-05-10T01:14:26;15.73;;;14.25;;
48327;SDS011;34136;51.022;7.082;2023-05-10T01:17:13;16.08;;;14.55;;
48327;SDS011;34136;51.022;7.082;2023-05-10T01:20:01;17.02;;;15.32;;
48327;SDS011;34136;51.022;7.082;2023-05-10T01:32:41;16.13;;;14.63;;
48327;SDS011;34136;51.022;7.082;2023-05-10T01:35:48;16.92;;;15.43;;
48327;SDS011;34136;51.022;7.082;2023-05-10T01:42:10;16.30;;;14.85;;
48327;SDS011;34136;51.022;7.082;2023-05-10T01:45:45;18.15;;;16.25;;
48327;SDS011;34136;51.022;7.082;2023-05-10T01:48:17;16.70;;;15.27;;
48327;SDS011;34136;51.022;7.082;2023-05-10T01:51:05;17.30;;;15.68;;
48327;SDS011;34136;51.022;7.082;2023-05-10T01:53:54;16.75;;;15.15;;
48327;SDS011;34136;51.022;7.082;2023-05-10T01:56:51;16.77;;;15.15;;
48327;SDS011;34136;51.022;7.082;2023-05-10T01:59:42;15.18;;;13.68;;
48327;SDS011;34136;51.022;7.082;2023-05-10T02:02:36;16.75;;;15.15;;
48327;SDS011;34136;51.022;7.082;2023-05-10T02:05:24;16.55;;;14.20;;
48327;SDS011;34136;51.022;7.082;2023-05-10T02:08:13;15.10;;;13.48;;
48327;SDS011;34136;51.022;7.082;2023-05-10T02:11:00;14.05;;;12.75;;
48327;SDS011;34136;51.022;7.082;2023-05-10T02:13:48;13.75;;;12.45;;
48327;SDS011;34136;51.022;7.082;2023-05-10T02:16:35;11.93;;;10.68;;
48327;SDS011;34136;51.022;7.082;2023-05-10T02:19:24;10.57;;;9.50;;
48327;SDS011;34136;51.022;7.082;2023-05-10T02:22:11;11.00;;;9.90;;
48327;SDS011;34136;51.022;7.082;2023-05-10T02:24:59;10.35;;;9.35;;
48327;SDS011;34136;51.022;7.082;2023-05-10T02:27:48;11.32;;;9.65;;
48327;SDS011;34136;51.022;7.082;2023-05-10T02:30:35;10.80;;;9.60;;
48327;SDS011;34136;51.022;7.082;2023-05-10T02:33:23;12.55;;;10.20;;
48327;SDS011;34136;51.022;7.082;2023-05-10T02:36:11;11.63;;;9.35;;
48327;SDS011;34136;51.022;7.082;2023-05-10T02:38:59;11.88;;;8.95;;
48327;SDS011;34136;51.022;7.082;2023-05-10T02:41:48;10.45;;;8.82;;
48327;SDS011;34136;51.022;7.082;2023-05-10T02:44:36;9.23;;;7.82;;
48327;SDS011;34136;51.022;7.082;2023-05-10T02:47:23;9.35;;;7.35;;
48327;SDS011;34136;51.022;7.082;2023-05-10T02:50:09;11.35;;;7.18;;
48327;SDS011;34136;51.022;7.082;2023-05-10T02:52:59;7.78;;;6.82;;
48327;SDS011;34136;51.022;7.082;2023-05-10T02:55:49;10.98;;;7.20;;
48327;SDS011;34136;51.022;7.082;2023-05-10T02:58:38;9.55;;;6.55;;
48327;SDS011;34136;51.022;7.082;2023-05-10T03:01:24;10.18;;;6.60;;
48327;SDS011;34136;51.022;7.082;2023-05-10T03:04:11;7.18;;;6.43;;
48327;SDS011;34136;51.022;7.082;2023-05-10T03:06:58;7.35;;;6.20;;
48327;SDS011;34136;51.022;7.082;2023-05-10T03:09:45;7.28;;;6.25;;
48327;SDS011;34136;51.022;7.082;2023-05-10T03:18:23;7.88;;;6.63;;
48327;SDS011;34136;51.022;7.082;2023-05-10T03:21:16;8.13;;;7.28;;
48327;SDS011;34136;51.022;7.082;2023-05-10T03:24:06;9.77;;;7.35;;
48327;SDS011;34136;51.022;7.082;2023-05-10T03:26:56;10.55;;;7.15;;
48327;SDS011;34136;51.022;7.082;2023-05-10T03:29:47;9.95;;;7.70;;
48327;SDS011;34136;51.022;7.082;2023-05-10T03:32:36;9.20;;;7.18;;
48327;SDS011;34136;51.022;7.082;2023-05-10T03:35:23;9.95;;;8.38;;
48327;SDS011;34136;51.022;7.082;2023-05-10T03:38:11;10.90;;;7.75;;
48327;SDS011;34136;51.022;7.082;2023-05-10T03:40:59;10.13;;;7.15;;
48327;SDS011;34136;51.022;7.082;2023-05-10T03:43:45;9.88;;;8.32;;
48327;SDS011;34136;51.022;7.082;2023-05-10T03:46:33;10.32;;;7.90;;
48327;SDS011;34136;51.022;7.082;2023-05-10T03:49:20;9.05;;;8.15;;
48327;SDS011;34136;51.022;7.082;2023-05-10T03:52:07;9.68;;;7.95;;
48327;SDS011;34136;51.022;7.082;2023-05-10T03:54:54;10.40;;;7.68;;
48327;SDS011;34136;51.022;7.082;2023-05-10T03:57:42;10.32;;;9.23;;
48327;SDS011;34136;51.022;7.082;2023-05-10T04:00:29;11.90;;;9.40;;
48327;SDS011;34136;51.022;7.082;2023-05-10T04:03:16;13.32;;;9.57;;
48327;SDS011;34136;51.022;7.082;2023-05-10T04:06:03;13.07;;;9.90;;
48327;SDS011;34136;51.022;7.082;2023-05-10T04:08:50;12.35;;;11.07;;
48327;SDS011;34136;51.022;7.082;2023-05-10T04:11:37;12.52;;;11.23;;
48327;SDS011;34136;51.022;7.082;2023-05-10T04:14:23;11.93;;;10.73;;
48327;SDS011;34136;51.022;7.082;2023-05-10T04:17:10;12.52;;;11.25;;
48327;SDS011;34136;51.022;7.082;2023-05-10T04:19:57;13.10;;;10.30;;
48327;SDS011;34136;51.022;7.082;2023-05-10T04:22:43;11.73;;;9.80;;
48327;SDS011;34136;51.022;7.082;2023-05-10T04:25:30;13.25;;;10.70;;
48327;SDS011;34136;51.022;7.082;2023-05-10T04:28:19;11.82;;;10.63;;
48327;SDS011;34136;51.022;7.082;2023-05-10T04:31:06;16.85;;;11.98;;
48327;SDS011;34136;51.022;7.082;2023-05-10T04:33:53;13.13;;;11.65;;
48327;SDS011;34136;51.022;7.082;2023-05-10T04:36:40;13.27;;;11.45;;
48327;SDS011;34136;51.022;7.082;2023-05-10T04:39:26;14.48;;;12.00;;
48327;SDS011;34136;51.022;7.082;2023-05-10T04:42:13;14.13;;;12.65;;
48327;SDS011;34136;51.022;7.082;2023-05-10T04:44:59;14.98;;;12.88;;
48327;SDS011;34136;51.022;7.082;2023-05-10T04:47:45;16.42;;;13.93;;
48327;SDS011;34136;51.022;7.082;2023-05-10T04:50:32;15.20;;;13.60;;
48327;SDS011;34136;51.022;7.082;2023-05-10T04:53:18;14.63;;;13.15;;
48327;SDS011;34136;51.022;7.082;2023-05-10T04:56:04;15.68;;;13.85;;
48327;SDS011;34136;51.022;7.082;2023-05-10T04:58:51;15.00;;;13.60;;
48327;SDS011;34136;51.022;7.082;2023-05-10T05:01:37;21.20;;;16.52;;
48327;SDS011;34136;51.022;7.082;2023-05-10T05:04:24;19.75;;;16.73;;
48327;SDS011;34136;51.022;7.082;2023-05-10T05:07:10;20.65;;;18.55;;
48327;SDS011;34136;51.022;7.082;2023-05-10T05:09:56;21.15;;;18.92;;
48327;SDS011;34136;51.022;7.082;2023-05-10T05:12:43;24.50;;;21.90;;
48327;SDS011;34136;51.022;7.082;2023-05-10T05:15:29;26.52;;;22.92;;
48327;SDS011;34136;51.022;7.082;2023-05-10T05:18:16;27.02;;;24.17;;
48327;SDS011;34136;51.022;7.082;2023-05-10T05:21:02;26.33;;;22.88;;
48327;SDS011;34136;51.022;7.082;2023-05-10T05:23:48;27.67;;;23.95;;
48327;SDS011;34136;51.022;7.082;2023-05-10T05:26:35;26.35;;;22.83;;
48327;SDS011;34136;51.022;7.082;2023-05-10T05:29:21;25.35;;;21.83;;
48327;SDS011;34136;51.022;7.082;2023-05-10T05:32:08;23.58;;;21.08;;
48327;SDS011;34136;51.022;7.082;2023-05-10T05:34:54;27.20;;;21.80;;
48327;SDS011;34136;51.022;7.082;2023-05-10T05:37:40;26.73;;;22.85;;
48327;SDS011;34136;51.022;7.082;2023-05-10T05:40:26;25.50;;;22.88;;
48327;SDS011;34136;51.022;7.082;2023-05-10T05:43:13;26.13;;;22.80;;
48327;SDS011;34136;51.022;7.082;2023-05-10T05:45:59;26.23;;;23.45;;
48327;SDS011;34136;51.022;7.082;2023-05-10T05:48:45;29.13;;;22.77;;
48327;SDS011;34136;51.022;7.082;2023-05-10T05:51:31;27.23;;;23.15;;
48327;SDS011;34136;51.022;7.082;2023-05-10T05:54:17;28.75;;;25.67;;
48327;SDS011;34136;51.022;7.082;2023-05-10T05:57:04;27.05;;;24.15;;
48327;SDS011;34136;51.022;7.082;2023-05-10T05:59:50;28.33;;;23.45;;
48327;SDS011;34136;51.022;7.082;2023-05-10T06:02:35;26.48;;;23.63;;
48327;SDS011;34136;51.022;7.082;2023-05-10T06:05:22;27.00;;;24.13;;
48327;SDS011;34136;51.022;7.082;2023-05-10T06:08:08;28.80;;;23.40;;
48327;SDS011;34136;51.022;7.082;2023-05-10T06:10:55;25.70;;;22.75;;
48327;SDS011;34136;51.022;7.082;2023-05-10T06:13:41;27.08;;;22.38;;
48327;SDS011;34136;51.022;7.082;2023-05-10T06:16:27;28.35;;;23.58;;
48327;SDS011;34136;51.022;7.082;2023-05-10T06:19:13;30.98;;;23.73;;
48327;SDS011;34136;51.022;7.082;2023-05-10T06:21:59;28.85;;;23.92;;
48327;SDS011;34136;51.022;7.082;2023-05-10T06:24:46;31.33;;;23.15;;
48327;SDS011;34136;51.022;7.082;2023-05-10T06:27:32;27.15;;;21.08;;
48327;SDS011;34136;51.022;7.082;2023-05-10T06:30:19;26.98;;;21.42;;
48327;SDS011;34136;51.022;7.082;2023-05-10T06:33:05;29.05;;;21.77;;
48327;SDS011;34136;51.022;7.082;2023-05-10T06:35:51;27.92;;;22.10;;
48327;SDS011;34136;51.022;7.082;2023-05-10T06:38:37;26.00;;;21.58;;
48327;SDS011;34136;51.022;7.082;2023-05-10T06:41:23;30.77;;;24.02;;
48327;SDS011;34136;51.022;7.082;2023-05-10T06:44:10;32.10;;;23.80;;
48327;SDS011;34136;51.022;7.082;2023-05-10T06:46:56;32.42;;;24.75;;
48327;SDS011;34136;51.022;7.082;2023-05-10T06:49:43;30.40;;;25.13;;
48327;SDS011;34136;51.022;7.082;2023-05-10T06:52:29;29.58;;;23.27;;
48327;SDS011;34136;51.022;7.082;2023-05-10T06:55:15;30.52;;;23.25;;
48327;SDS011;34136;51.022;7.082;2023-05-10T06:58:01;28.08;;;22.63;;
48327;SDS011;34136;51.022;7.082;2023-05-10T07:00:48;30.38;;;22.23;;
48327;SDS011;34136;51.022;7.082;2023-05-10T07:03:34;30.63;;;22.15;;
48327;SDS011;34136;51.022;7.082;2023-05-10T07:06:21;28.67;;;21.73;;
48327;SDS011;34136;51.022;7.082;2023-05-10T07:09:07;27.45;;;22.00;;
48327;SDS011;34136;51.022;7.082;2023-05-10T07:11:53;27.73;;;21.50;;
48327;SDS011;34136;51.022;7.082;2023-05-10T07:14:39;29.42;;;24.15;;
48327;SDS011;34136;51.022;7.082;2023-05-10T07:17:26;30.75;;;23.52;;
48327;SDS011;34136;51.022;7.082;2023-05-10T07:20:12;30.98;;;24.02;;
48327;SDS011;34136;51.022;7.082;2023-05-10T07:22:59;27.58;;;23.80;;
48327;SDS011;34136;51.022;7.082;2023-05-10T07:25:45;30.33;;;24.45;;
48327;SDS011;34136;51.022;7.082;2023-05-10T07:28:32;34.58;;;24.45;;
48327;SDS011;34136;51.022;7.082;2023-05-10T07:31:19;28.00;;;24.08;;
48327;SDS011;34136;51.022;7.082;2023-05-10T07:34:05;30.52;;;23.25;;
48327;SDS011;34136;51.022;7.082;2023-05-10T07:36:54;30.00;;;24.15;;
48327;SDS011;34136;51.022;7.082;2023-05-10T07:39:40;25.33;;;22.17;;
48327;SDS011;34136;51.022;7.082;2023-05-10T07:42:27;25.42;;;22.38;;
48327;SDS011;34136;51.022;7.082;2023-05-10T07:45:15;24.52;;;21.27;;
48327;SDS011;34136;51.022;7.082;2023-05-10T07:48:07;24.48;;;21.88;;
48327;SDS011;34136;51.022;7.082;2023-05-10T07:51:18;30.85;;;22.00;;
48327;SDS011;34136;51.022;7.082;2023-05-10T07:54:16;26.02;;;21.73;;
48327;SDS011;34136;51.022;7.082;2023-05-10T07:57:03;24.93;;;21.97;;
48327;SDS011;34136;51.022;7.082;2023-05-10T08:00:17;25.23;;;21.38;;
48327;SDS011;34136;51.022;7.082;2023-05-10T08:03:13;27.45;;;22.85;;
48327;SDS011;34136;51.022;7.082;2023-05-10T08:06:08;29.83;;;23.58;;
48327;SDS011;34136;51.022;7.082;2023-05-10T08:09:08;34.95;;;24.33;;
48327;SDS011;34136;51.022;7.082;2023-05-10T08:11:57;30.63;;;25.23;;
48327;SDS011;34136;51.022;7.082;2023-05-10T08:17:44;30.38;;;24.33;;
48327;SDS011;34136;51.022;7.082;2023-05-10T08:21:04;26.73;;;23.80;;
48327;SDS011;34136;51.022;7.082;2023-05-10T08:24:27;29.08;;;22.65;;
48327;SDS011;34136;51.022;7.082;2023-05-10T08:27:18;30.45;;;22.90;;
48327;SDS011;34136;51.022;7.082;2023-05-10T08:30:21;24.98;;;21.13;;
48327;SDS011;34136;51.022;7.082;2023-05-10T08:33:20;25.35;;;22.15;;
48327;SDS011;34136;51.022;7.082;2023-05-10T08:36:10;28.07;;;21.60;;
48327;SDS011;34136;51.022;7.082;2023-05-10T08:39:06;24.73;;;20.38;;
48327;SDS011;34136;51.022;7.082;2023-05-10T08:41:57;27.10;;;21.58;;
48327;SDS011;34136;51.022;7.082;2023-05-10T08:44:49;24.70;;;21.40;;
48327;SDS011;34136;51.022;7.082;2023-05-10T08:47:39;20.38;;;18.23;;
48327;SDS011;34136;51.022;7.082;2023-05-10T08:50:41;21.08;;;18.75;;
48327;SDS011;34136;51.022;7.082;2023-05-10T08:53:34;21.83;;;17.83;;
48327;SDS011;34136;51.022;7.082;2023-05-10T08:56:26;20.67;;;17.75;;
48327;SDS011;34136;51.022;7.082;2023-05-10T08:59:24;23.90;;;17.75;;
48327;SDS011;34136;51.022;7.082;2023-05-10T09:02:13;22.48;;;17.17;;
48327;SDS011;34136;51.022;7.082;2023-05-10T09:05:07;19.00;;;16.27;;
48327;SDS011;34136;51.022;7.082;2023-05-10T09:07:55;20.48;;;15.77;;
48327;SDS011;34136;51.022;7.082;2023-05-10T09:10:47;18.50;;;16.27;;
48327;SDS011;34136;51.022;7.082;2023-05-10T09:13:41;24.30;;;17.63;;
48327;SDS011;34136;51.022;7.082;2023-05-10T09:16:40;21.43;;;17.53;;
48327;SDS011;34136;51.022;7.082;2023-05-10T09:19:45;22.92;;;17.95;;
48327;SDS011;34136;51.022;7.082;2023-05-10T09:22:39;23.60;;;18.48;;
48327;SDS011;34136;51.022;7.082;2023-05-10T09:25:31;22.05;;;17.70;;
48327;SDS011;34136;51.022;7.082;2023-05-10T09:31:51;27.23;;;19.85;;
48327;SDS011;34136;51.022;7.082;2023-05-10T09:35:07;26.58;;;20.25;;
48327;SDS011;34136;51.022;7.082;2023-05-10T09:38:13;28.90;;;22.02;;
48327;SDS011;34136;51.022;7.082;2023-05-10T09:41:19;26.90;;;21.67;;
48327;SDS011;34136;51.022;7.082;2023-05-10T09:44:21;30.42;;;24.42;;
48327;SDS011;34136;51.022;7.082;2023-05-10T09:47:23;37.50;;;28.25;;
48327;SDS011;34136;51.022;7.082;2023-05-10T09:50:16;38.72;;;28.65;;
48327;SDS011;34136;51.022;7.082;2023-05-10T09:53:16;33.25;;;26.02;;
48327;SDS011;34136;51.022;7.082;2023-05-10T09:56:03;33.47;;;25.20;;
48327;SDS011;34136;51.022;7.082;2023-05-10T09:59:01;36.25;;;27.17;;
48327;SDS011;34136;51.022;7.082;2023-05-10T10:01:49;36.17;;;26.60;;
48327;SDS011;34136;51.022;7.082;2023-05-10T10:04:40;34.25;;;24.92;;
48327;SDS011;34136;51.022;7.082;2023-05-10T10:07:27;32.10;;;24.17;;
48327;SDS011;34136;51.022;7.082;2023-05-10T10:10:14;36.65;;;25.40;;
48327;SDS011;34136;51.022;7.082;2023-05-10T10:13:00;31.05;;;23.70;;
48327;SDS011;34136;51.022;7.082;2023-05-10T10:15:47;29.73;;;23.08;;
48327;SDS011;34136;51.022;7.082;2023-05-10T10:18:35;30.30;;;23.98;;
48327;SDS011;34136;51.022;7.082;2023-05-10T10:21:22;32.00;;;24.90;;
48327;SDS011;34136;51.022;7.082;2023-05-10T10:24:09;34.83;;;25.30;;
48327;SDS011;34136;51.022;7.082;2023-05-10T10:26:57;33.28;;;25.00;;
48327;SDS011;34136;51.022;7.082;2023-05-10T10:30:07;32.95;;;25.50;;
48327;SDS011;34136;51.022;7.082;2023-05-10T10:36:44;32.80;;;23.42;;
48327;SDS011;34136;51.022;7.082;2023-05-10T10:39:31;32.65;;;23.92;;
48327;SDS011;34136;51.022;7.082;2023-05-10T10:42:43;31.75;;;25.30;;
48327;SDS011;34136;51.022;7.082;2023-05-10T10:45:30;32.53;;;23.52;;
48327;SDS011;34136;51.022;7.082;2023-05-10T10:48:19;34.65;;;25.27;;
48327;SDS011;34136;51.022;7.082;2023-05-10T10:51:07;33.40;;;23.90;;
48327;SDS011;34136;51.022;7.082;2023-05-10T10:53:53;27.95;;;22.88;;
48327;SDS011;34136;51.022;7.082;2023-05-10T10:56:40;27.55;;;21.30;;
48327;SDS011;34136;51.022;7.082;2023-05-10T10:59:27;27.20;;;19.52;;
48327;SDS011;34136;51.022;7.082;2023-05-10T11:06:03;29.70;;;22.08;;
48327;SDS011;34136;51.022;7.082;2023-05-10T11:08:49;26.33;;;21.45;;
48327;SDS011;34136;51.022;7.082;2023-05-10T11:11:53;28.95;;;22.60;;
48327;SDS011;34136;51.022;7.082;2023-05-10T11:14:40;30.45;;;23.27;;
48327;SDS011;34136;51.022;7.082;2023-05-10T11:17:29;25.60;;;20.80;;
48327;SDS011;34136;51.022;7.082;2023-05-10T11:20:15;26.30;;;20.88;;
48327;SDS011;34136;51.022;7.082;2023-05-10T11:23:13;27.33;;;20.38;;
48327;SDS011;34136;51.022;7.082;2023-05-10T11:26:00;24.80;;;21.10;;
48327;SDS011;34136;51.022;7.082;2023-05-10T11:28:47;26.05;;;20.38;;
48327;SDS011;34136;51.022;7.082;2023-05-10T11:31:34;24.92;;;19.80;;
48327;SDS011;34136;51.022;7.082;2023-05-10T11:34:28;23.15;;;19.38;;
48327;SDS011;34136;51.022;7.082;2023-05-10T11:37:17;23.70;;;19.40;;
48327;SDS011;34136;51.022;7.082;2023-05-10T11:40:04;23.73;;;18.58;;
48327;SDS011;34136;51.022;7.082;2023-05-10T11:42:51;21.90;;;17.02;;
48327;SDS011;34136;51.022;7.082;2023-05-10T11:45:39;19.98;;;15.38;;
48327;SDS011;34136;51.022;7.082;2023-05-10T11:48:27;18.85;;;15.35;;
48327;SDS011;34136;51.022;7.082;2023-05-10T11:51:15;19.38;;;15.65;;
48327;SDS011;34136;51.022;7.082;2023-05-10T11:54:01;19.17;;;15.18;;
48327;SDS011;34136;51.022;7.082;2023-05-10T11:56:52;19.35;;;15.48;;
48327;SDS011;34136;51.022;7.082;2023-05-10T11:59:38;20.48;;;14.82;;
48327;SDS011;34136;51.022;7.082;2023-05-10T12:02:25;14.13;;;12.32;;
48327;SDS011;34136;51.022;7.082;2023-05-10T12:05:12;14.63;;;12.45;;
48327;SDS011;34136;51.022;7.082;2023-05-10T12:08:14;13.18;;;11.13;;
48327;SDS011;34136;51.022;7.082;2023-05-10T12:11:07;15.02;;;12.43;;
48327;SDS011;34136;51.022;7.082;2023-05-10T12:13:55;12.85;;;10.88;;
48327;SDS011;34136;51.022;7.082;2023-05-10T12:16:42;14.00;;;11.00;;
48327;SDS011;34136;51.022;7.082;2023-05-10T12:19:36;11.82;;;10.27;;
48327;SDS011;34136;51.022;7.082;2023-05-10T12:22:23;12.07;;;9.15;;
48327;SDS011;34136;51.022;7.082;2023-05-10T12:25:10;11.23;;;8.88;;
48327;SDS011;34136;51.022;7.082;2023-05-10T12:27:56;8.18;;;5.90;;
48327;SDS011;34136;51.022;7.082;2023-05-10T12:30:44;6.50;;;5.40;;
48327;SDS011;34136;51.022;7.082;2023-05-10T12:36:23;7.10;;;4.03;;
48327;SDS011;34136;51.022;7.082;2023-05-10T12:39:09;5.63;;;4.65;;
48327;SDS011;34136;51.022;7.082;2023-05-10T12:41:56;5.82;;;4.75;;
48327;SDS011;34136;51.022;7.082;2023-05-10T12:44:42;8.40;;;4.25;;
48327;SDS011;34136;51.022;7.082;2023-05-10T12:47:29;5.78;;;4.65;;
48327;SDS011;34136;51.022;7.082;2023-05-10T12:50:16;6.60;;;4.80;;
48327;SDS011;34136;51.022;7.082;2023-05-10T12:53:02;8.00;;;4.78;;
48327;SDS011;34136;51.022;7.082;2023-05-10T12:55:48;6.53;;;4.47;;
48327;SDS011;34136;51.022;7.082;2023-05-10T12:58:35;4.85;;;4.35;;
48327;SDS011;34136;51.022;7.082;2023-05-10T13:01:21;6.88;;;4.18;;
48327;SDS011;34136;51.022;7.082;2023-05-10T13:04:07;8.13;;;3.50;;
48327;SDS011;34136;51.022;7.082;2023-05-10T13:06:55;6.32;;;3.47;;
48327;SDS011;34136;51.022;7.082;2023-05-10T13:09:41;3.72;;;2.72;;
48327;SDS011;34136;51.022;7.082;2023-05-10T13:12:27;3.13;;;2.50;;
48327;SDS011;34136;51.022;7.082;2023-05-10T13:15:14;2.60;;;2.20;;
48327;SDS011;34136;51.022;7.082;2023-05-10T13:18:00;3.25;;;2.50;;
48327;SDS011;34136;51.022;7.082;2023-05-10T13:20:46;4.00;;;2.83;;
48327;SDS011;34136;51.022;7.082;2023-05-10T13:23:33;4.53;;;2.80;;
48327;SDS011;34136;51.022;7.082;2023-05-10T13:26:20;6.03;;;2.72;;
48327;SDS011;34136;51.022;7.082;2023-05-10T13:29:07;5.35;;;3.47;;
48327;SDS011;34136;51.022;7.082;2023-05-10T13:31:53;3.65;;;3.00;;
48327;SDS011;34136;51.022;7.082;2023-05-10T13:34:40;5.57;;;4.18;;
48327;SDS011;34136;51.022;7.082;2023-05-10T13:37:26;4.65;;;3.38;;
48327;SDS011;34136;51.022;7.082;2023-05-10T13:40:12;4.20;;;3.67;;
48327;SDS011;34136;51.022;7.082;2023-05-10T13:42:59;5.05;;;3.35;;
48327;SDS011;34136;51.022;7.082;2023-05-10T13:45:45;3.83;;;3.40;;
48327;SDS011;34136;51.022;7.082;2023-05-10T13:48:31;3.40;;;2.85;;
48327;SDS011;34136;51.022;7.082;2023-05-10T13:51:18;6.43;;;3.13;;
48327;SDS011;34136;51.022;7.082;2023-05-10T13:54:04;3.20;;;2.60;;
48327;SDS011;34136;51.022;7.082;2023-05-10T13:56:51;4.65;;;2.90;;
48327;SDS011;34136;51.022;7.082;2023-05-10T13:59:37;5.47;;;2.80;;
48327;SDS011;34136;51.022;7.082;2023-05-10T14:02:23;3.55;;;2.92;;
48327;SDS011;34136;51.022;7.082;2023-05-10T14:05:10;2.67;;;2.28;;
48327;SDS011;34136;51.022;7.082;2023-05-10T14:07:56;3.03;;;2.35;;
48327;SDS011;34136;51.022;7.082;2023-05-10T14:10:43;3.17;;;2.65;;
48327;SDS011;34136;51.022;7.082;2023-05-10T14:13:30;6.00;;;4.85;;
48327;SDS011;34136;51.022;7.082;2023-05-10T14:16:16;8.10;;;6.85;;
48327;SDS011;34136;51.022;7.082;2023-05-10T14:19:03;9.65;;;6.53;;
48327;SDS011;34136;51.022;7.082;2023-05-10T14:21:48;4.57;;;3.90;;
48327;SDS011;34136;51.022;7.082;2023-05-10T14:24:35;7.53;;;6.30;;
48327;SDS011;34136;51.022;7.082;2023-05-10T14:27:21;10.90;;;8.70;;
48327;SDS011;34136;51.022;7.082;2023-05-10T14:30:08;9.70;;;8.25;;
48327;SDS011;34136;51.022;7.082;2023-05-10T14:32:54;7.93;;;7.13;;
48327;SDS011;34136;51.022;7.082;2023-05-10T14:35:41;8.30;;;7.40;;
48327;SDS011;34136;51.022;7.082;2023-05-10T14:38:27;10.43;;;8.65;;
48327;SDS011;34136;51.022;7.082;2023-05-10T14:41:13;9.32;;;8.07;;
48327;SDS011;34136;51.022;7.082;2023-05-10T14:44:00;8.30;;;7.45;;
48327;SDS011;34136;51.022;7.082;2023-05-10T14:46:47;16.02;;;8.73;;
48327;SDS011;34136;51.022;7.082;2023-05-10T14:49:33;12.63;;;9.55;;
48327;SDS011;34136;51.022;7.082;2023-05-10T14:52:19;10.90;;;8.25;;
48327;SDS011;34136;51.022;7.082;2023-05-10T14:55:05;9.60;;;7.97;;
48327;SDS011;34136;51.022;7.082;2023-05-10T14:57:52;11.45;;;9.43;;
48327;SDS011;34136;51.022;7.082;2023-05-10T15:00:38;12.30;;;9.40;;
48327;SDS011;34136;51.022;7.082;2023-05-10T15:03:26;11.55;;;10.35;;
48327;SDS011;34136;51.022;7.082;2023-05-10T15:06:13;12.75;;;10.23;;
48327;SDS011;34136;51.022;7.082;2023-05-10T15:09:00;12.07;;;10.80;;
48327;SDS011;34136;51.022;7.082;2023-05-10T15:11:48;13.48;;;12.15;;
48327;SDS011;34136;51.022;7.082;2023-05-10T15:14:34;15.73;;;14.02;;
48327;SDS011;34136;51.022;7.082;2023-05-10T15:17:22;13.95;;;12.52;;
48327;SDS011;34136;51.022;7.082;2023-05-10T15:20:08;10.77;;;9.10;;
48327;SDS011;34136;51.022;7.082;2023-05-10T15:22:54;10.05;;;9.05;;
48327;SDS011;34136;51.022;7.082;2023-05-10T15:25:41;9.95;;;8.48;;
48327;SDS011;34136;51.022;7.082;2023-05-10T15:28:27;8.70;;;7.80;;
48327;SDS011;34136;51.022;7.082;2023-05-10T15:31:14;10.48;;;8.35;;
48327;SDS011;34136;51.022;7.082;2023-05-10T15:34:00;9.48;;;8.18;;
48327;SDS011;34136;51.022;7.082;2023-05-10T15:36:46;8.80;;;7.28;;
48327;SDS011;34136;51.022;7.082;2023-05-10T15:39:33;9.20;;;7.15;;
48327;SDS011;34136;51.022;7.082;2023-05-10T15:42:19;7.95;;;7.13;;
48327;SDS011;34136;51.022;7.082;2023-05-10T15:45:06;8.05;;;7.05;;
48327;SDS011;34136;51.022;7.082;2023-05-10T15:47:52;8.32;;;7.28;;
48327;SDS011;34136;51.022;7.082;2023-05-10T15:50:40;8.77;;;7.72;;
48327;SDS011;34136;51.022;7.082;2023-05-10T15:53:26;8.35;;;7.45;;
48327;SDS011;34136;51.022;7.082;2023-05-10T15:56:12;7.93;;;7.13;;
48327;SDS011;34136;51.022;7.082;2023-05-10T15:58:59;8.63;;;7.75;;
48327;SDS011;34136;51.022;7.082;2023-05-10T16:01:45;8.90;;;7.30;;
48327;SDS011;34136;51.022;7.082;2023-05-10T16:04:31;13.13;;;7.63;;
48327;SDS011;34136;51.022;7.082;2023-05-10T16:07:18;9.07;;;8.13;;
48327;SDS011;34136;51.022;7.082;2023-05-10T16:10:04;10.00;;;7.53;;
48327;SDS011;34136;51.022;7.082;2023-05-10T16:12:51;7.40;;;6.70;;
48327;SDS011;34136;51.022;7.082;2023-05-10T16:15:39;8.77;;;7.40;;
48327;SDS011;34136;51.022;7.082;2023-05-10T16:18:26;7.30;;;6.60;;
48327;SDS011;34136;51.022;7.082;2023-05-10T16:21:12;6.85;;;5.97;;
48327;SDS011;34136;51.022;7.082;2023-05-10T16:23:59;6.93;;;6.22;;
48327;SDS011;34136;51.022;7.082;2023-05-10T16:26:48;8.75;;;6.63;;
48327;SDS011;34136;51.022;7.082;2023-05-10T16:29:34;8.13;;;6.10;;
48327;SDS011;34136;51.022;7.082;2023-05-10T16:32:21;8.32;;;6.93;;
48327;SDS011;34136;51.022;7.082;2023-05-10T16:35:08;9.45;;;7.00;;
48327;SDS011;34136;51.022;7.082;2023-05-10T16:37:54;9.02;;;6.82;;
48327;SDS011;34136;51.022;7.082;2023-05-10T16:40:41;6.00;;;4.82;;
48327;SDS011;34136;51.022;7.082;2023-05-10T16:43:28;10.27;;;6.47;;
48327;SDS011;34136;51.022;7.082;2023-05-10T16:46:15;6.60;;;4.53;;
48327;SDS011;34136;51.022;7.082;2023-05-10T16:49:01;6.68;;;5.22;;
48327;SDS011;34136;51.022;7.082;2023-05-10T16:51:47;6.70;;;5.18;;
48327;SDS011;34136;51.022;7.082;2023-05-10T16:54:34;7.80;;;4.88;;
48327;SDS011;34136;51.022;7.082;2023-05-10T16:57:20;5.60;;;4.22;;
48327;SDS011;34136;51.022;7.082;2023-05-10T17:00:08;5.40;;;4.22;;
48327;SDS011;34136;51.022;7.082;2023-05-10T17:02:54;5.72;;;4.20;;
48327;SDS011;34136;51.022;7.082;2023-05-10T17:05:40;6.93;;;4.82;;
48327;SDS011;34136;51.022;7.082;2023-05-10T17:08:26;6.57;;;4.82;;
48327;SDS011;34136;51.022;7.082;2023-05-10T17:11:12;7.60;;;4.60;;
48327;SDS011;34136;51.022;7.082;2023-05-10T17:13:59;5.60;;;4.47;;